sensor_id;sensor_type;location;lat;lon;timestamp;pressure;altitude;pressure_sealevel;temperature;humidity
10470;BME280;5282;47.052;15.458;2023-04-02T00:01:17;96632.22;;;9.13;100.00
10470;BME280;5282;47.052;15.458;2023-04-02T00:04:13;96629.25;;;9.08;100.00
10470;BME280;5282;47.052;15.458;2023-04-02T00:06:48;96631.72;;;9.09;100.00
10470;BME280;5282;47.052;15.458;2023-04-02T00:09:27;96622.97;;;8.92;100.00
10470;BME280;5282;47.052;15.458;2023-04-02T00:11:58;96624.59;;;9.02;100.00
10470;BME280;5282;47.052;15.458;2023-04-02T00:14:45;96624.00;;;8.91;100.00
10470;BME280;5282;47.052;15.458;2023-04-02T00:17:12;96624.13;;;8.75;100.00
10470;BME280;5282;47.052;15.458;2023-04-02T00:19:46;96619.09;;;8.72;100.00
10470;BME280;5282;47.052;15.458;2023-04-02T00:22:16;96614.72;;;8.79;100.00
10470;BME280;5282;47.052;15.458;2023-04-02T00:24:44;96605.94;;;8.85;100.00
10470;BME280;5282;47.052;15.458;2023-04-02T00:27:13;96616.53;;;8.55;100.00
10470;BME280;5282;47.052;15.458;2023-04-02T00:29:45;96619.34;;;8.62;100.00
10470;BME280;5282;47.052;15.458;2023-04-02T00:32:17;96619.94;;;8.72;100.00
10470;BME280;5282;47.052;15.458;2023-04-02T00:34:48;96613.50;;;8.82;100.00
10470;BME280;5282;47.052;15.458;2023-04-02T00:37:19;96611.81;;;8.57;100.00
10470;BME280;5282;47.052;15.458;2023-04-02T00:39:57;96617.59;;;8.38;100.00
10470;BME280;5282;47.052;15.458;2023-04-02T00:42:27;96622.06;;;8.54;100.00
10470;BME280;5282;47.052;15.458;2023-04-02T00:44:56;96608.13;;;8.58;100.00
10470;BME280;5282;47.052;15.458;2023-04-02T00:47:25;96619.34;;;8.62;100.00
10470;BME280;5282;47.052;15.458;2023-04-02T00:49:57;96613.97;;;8.62;100.00
10470;BME280;5282;47.052;15.458;2023-04-02T00:52:29;96618.81;;;8.35;100.00
10470;BME280;5282;47.052;15.458;2023-04-02T00:55:02;96625.97;;;8.43;100.00
10470;BME280;5282;47.052;15.458;2023-04-02T00:57:31;96604.13;;;8.54;100.00
10470;BME280;5282;47.052;15.458;2023-04-02T01:00:01;96601.47;;;8.54;100.00
10470;BME280;5282;47.052;15.458;2023-04-02T01:02:33;96603.47;;;8.52;100.00
10470;BME280;5282;47.052;15.458;2023-04-02T01:05:21;96613.66;;;8.25;100.00
10470;BME280;5282;47.052;15.458;2023-04-02T01:08:06;96613.38;;;8.12;100.00
10470;BME280;5282;47.052;15.458;2023-04-02T01:10:51;96609.78;;;8.28;100.00
10470;BME280;5282;47.052;15.458;2023-04-02T01:13:32;96610.69;;;8.43;100.00
10470;BME280;5282;47.052;15.458;2023-04-02T01:16:07;96612.91;;;8.40;100.00
10470;BME280;5282;47.052;15.458;2023-04-02T01:18:45;96608.88;;;8.36;100.00
10470;BME280;5282;47.052;15.458;2023-04-02T01:21:40;96610.09;;;8.33;100.00
10470;BME280;5282;47.052;15.458;2023-04-02T01:24:12;96609.06;;;8.34;100.00
10470;BME280;5282;47.052;15.458;2023-04-02T01:26:51;96614.00;;;8.22;100.00
10470;BME280;5282;47.052;15.458;2023-04-02T01:29:22;96608.41;;;8.32;100.00
10470;BME280;5282;47.052;15.458;2023-04-02T01:31:54;96611.22;;;8.39;100.00
10470;BME280;5282;47.052;15.458;2023-04-02T01:34:24;96619.00;;;8.25;100.00
10470;BME280;5282;47.052;15.458;2023-04-02T01:37:07;96620.28;;;8.38;100.00
10470;BME280;5282;47.052;15.458;2023-04-02T01:39:51;96614.75;;;8.39;100.00
10470;BME280;5282;47.052;15.458;2023-04-02T01:42:20;96614.91;;;8.38;100.00
10470;BME280;5282;47.052;15.458;2023-04-02T01:44:58;96611.28;;;8.30;100.00
10470;BME280;5282;47.052;15.458;2023-04-02T01:47:27;96613.66;;;8.25;100.00
10470;BME280;5282;47.052;15.458;2023-04-02T01:50:01;96614.97;;;8.29;100.00
10470;BME280;5282;47.052;15.458;2023-04-02T01:52:35;96619.00;;;8.25;100.00
10470;BME280;5282;47.052;15.458;2023-04-02T01:55:06;96622.47;;;8.02;100.00
10470;BME280;5282;47.052;15.458;2023-04-02T01:57:34;96626.28;;;8.16;100.00
10470;BME280;5282;47.052;15.458;2023-04-02T02:00:05;96623.78;;;8.07;100.00
10470;BME280;5282;47.052;15.458;2023-04-02T02:02:39;96621.50;;;7.95;100.00
10470;BME280;5282;47.052;15.458;2023-04-02T02:05:11;96625.75;;;8.13;100.00
10470;BME280;5282;47.052;15.458;2023-04-02T02:07:39;96630.31;;;8.12;100.00
10470;BME280;5282;47.052;15.458;2023-04-02T02:10:14;96636.84;;;8.10;100.00
10470;BME280;5282;47.052;15.458;2023-04-02T02:12:43;96630.16;;;8.06;100.00
10470;BME280;5282;47.052;15.458;2023-04-02T02:15:16;96633.19;;;8.02;100.00
10470;BME280;5282;47.052;15.458;2023-04-02T02:17:50;96634.13;;;7.78;100.00
10470;BME280;5282;47.052;15.458;2023-04-02T02:20:22;96644.97;;;7.77;100.00
10470;BME280;5282;47.052;15.458;2023-04-02T02:22:52;96640.44;;;7.85;100.00
10470;BME280;5282;47.052;15.458;2023-04-02T02:25:22;96639.25;;;7.88;100.00
10470;BME280;5282;47.052;15.458;2023-04-02T02:27:58;96638.09;;;7.82;100.00
10470;BME280;5282;47.052;15.458;2023-04-02T02:30:31;96647.66;;;7.77;100.00
10470;BME280;5282;47.052;15.458;2023-04-02T02:33:04;96642.66;;;7.74;100.00
10470;BME280;5282;47.052;15.458;2023-04-02T02:35:36;96639.34;;;7.63;100.00
10470;BME280;5282;47.052;15.458;2023-04-02T02:38:26;96645.22;;;7.59;100.00
10470;BME280;5282;47.052;15.458;2023-04-02T02:40:57;96648.25;;;7.47;100.00
10470;BME280;5282;47.052;15.458;2023-04-02T02:43:27;96646.22;;;7.49;100.00
10470;BME280;5282;47.052;15.458;2023-04-02T02:45:56;96637.38;;;7.40;100.00
10470;BME280;5282;47.052;15.458;2023-04-02T02:48:39;96643.75;;;7.39;100.00
10470;BME280;5282;47.052;15.458;2023-04-02T02:51:13;96644.09;;;7.28;100.00
10470;BME280;5282;47.052;15.458;2023-04-02T02:53:48;96653.44;;;6.99;100.00
10470;BME280;5282;47.052;15.458;2023-04-02T02:56:18;96654.13;;;7.09;100.00
10470;BME280;5282;47.052;15.458;2023-04-02T02:58:50;96650.47;;;7.19;100.00
10470;BME280;5282;47.052;15.458;2023-04-02T03:01:19;96662.16;;;6.93;100.00
10470;BME280;5282;47.052;15.458;2023-04-02T03:03:51;96663.31;;;6.99;100.00
10470;BME280;5282;47.052;15.458;2023-04-02T03:06:24;96657.97;;;7.07;100.00
10470;BME280;5282;47.052;15.458;2023-04-02T03:08:56;96657.13;;;6.90;100.00
10470;BME280;5282;47.052;15.458;2023-04-02T03:11:32;96666.78;;;6.66;100.00
10470;BME280;5282;47.052;15.458;2023-04-02T03:14:09;96667.66;;;6.75;100.00
10470;BME280;5282;47.052;15.458;2023-04-02T03:16:44;96663.66;;;6.87;100.00
10470;BME280;5282;47.052;15.458;2023-04-02T03:19:22;96678.00;;;6.70;100.00
10470;BME280;5282;47.052;15.458;2023-04-02T03:21:55;96676.31;;;6.69;100.00
10470;BME280;5282;47.052;15.458;2023-04-02T03:24:31;96668.19;;;6.95;100.00
10470;BME280;5282;47.052;15.458;2023-04-02T03:27:04;96669.16;;;6.77;100.00
10470;BME280;5282;47.052;15.458;2023-04-02T03:29:34;96686.31;;;6.50;100.00
10470;BME280;5282;47.052;15.458;2023-04-02T03:32:10;96680.53;;;6.71;100.00
10470;BME280;5282;47.052;15.458;2023-04-02T03:34:44;96671.31;;;6.82;100.00
10470;BME280;5282;47.052;15.458;2023-04-02T03:37:17;96680.78;;;6.52;100.00
10470;BME280;5282;47.052;15.458;2023-04-02T03:39:48;96685.88;;;6.71;100.00
10470;BME280;5282;47.052;15.458;2023-04-02T03:42:20;96683.38;;;6.78;100.00
10470;BME280;5282;47.052;15.458;2023-04-02T03:44:53;96683.69;;;6.75;100.00
10470;BME280;5282;47.052;15.458;2023-04-02T03:47:30;96694.72;;;6.80;100.00
10470;BME280;5282;47.052;15.458;2023-04-02T03:50:02;96695.03;;;6.60;100.00
10470;BME280;5282;47.052;15.458;2023-04-02T03:52:34;96695.41;;;6.74;100.00
10470;BME280;5282;47.052;15.458;2023-04-02T03:55:10;96684.88;;;6.89;100.00
10470;BME280;5282;47.052;15.458;2023-04-02T03:57:46;96694.50;;;6.48;100.00
10470;BME280;5282;47.052;15.458;2023-04-02T04:00:21;96694.44;;;6.40;100.00
10470;BME280;5282;47.052;15.458;2023-04-02T04:02:54;96700.06;;;6.63;100.00
10470;BME280;5282;47.052;15.458;2023-04-02T04:05:26;96703.44;;;6.74;100.00
10470;BME280;5282;47.052;15.458;2023-04-02T04:07:58;96696.22;;;6.74;100.00
10470;BME280;5282;47.052;15.458;2023-04-02T04:10:27;96694.22;;;6.76;100.00
10470;BME280;5282;47.052;15.458;2023-04-02T04:13:02;96702.25;;;6.68;100.00
10470;BME280;5282;47.052;15.458;2023-04-02T04:15:34;96701.53;;;6.50;100.00
10470;BME280;5282;47.052;15.458;2023-04-02T04:18:08;96708.56;;;6.59;100.00
10470;BME280;5282;47.052;15.458;2023-04-02T04:20:49;96718.59;;;6.65;100.00
10470;BME280;5282;47.052;15.458;2023-04-02T04:23:27;96717.78;;;6.64;100.00
10470;BME280;5282;47.052;15.458;2023-04-02T04:25:56;96728.47;;;6.64;100.00
10470;BME280;5282;47.052;15.458;2023-04-02T04:28:29;96716.91;;;6.56;100.00
10470;BME280;5282;47.052;15.458;2023-04-02T04:31:00;96735.28;;;6.51;100.00
10470;BME280;5282;47.052;15.458;2023-04-02T04:33:33;96733.97;;;6.55;100.00
10470;BME280;5282;47.052;15.458;2023-04-02T04:36:17;96730.13;;;6.57;100.00
10470;BME280;5282;47.052;15.458;2023-04-02T04:38:54;96733.63;;;6.58;100.00
10470;BME280;5282;47.052;15.458;2023-04-02T04:41:27;96737.50;;;6.63;100.00
10470;BME280;5282;47.052;15.458;2023-04-02T04:44:01;96735.31;;;6.59;100.00
10470;BME280;5282;47.052;15.458;2023-04-02T04:46:36;96735.69;;;6.72;100.00
10470;BME280;5282;47.052;15.458;2023-04-02T04:49:09;96741.19;;;6.62;100.00
10470;BME280;5282;47.052;15.458;2023-04-02T04:51:42;96743.69;;;6.64;100.00
10470;BME280;5282;47.052;15.458;2023-04-02T04:54:12;96748.72;;;6.67;100.00
10470;BME280;5282;47.052;15.458;2023-04-02T04:56:44;96746.34;;;6.64;100.00
10470;BME280;5282;47.052;15.458;2023-04-02T04:59:16;96739.50;;;6.70;100.00
10470;BME280;5282;47.052;15.458;2023-04-02T05:01:48;96746.34;;;6.64;100.00
10470;BME280;5282;47.052;15.458;2023-04-02T05:04:22;96749.69;;;6.58;100.00
10470;BME280;5282;47.052;15.458;2023-04-02T05:06:52;96748.72;;;6.67;100.00
10470;BME280;5282;47.052;15.458;2023-04-02T05:09:27;96746.41;;;6.72;100.00
10470;BME280;5282;47.052;15.458;2023-04-02T05:12:04;96754.72;;;6.61;100.00
10470;BME280;5282;47.052;15.458;2023-04-02T05:14:36;96758.31;;;6.43;100.00
10470;BME280;5282;47.052;15.458;2023-04-02T05:17:09;96759.91;;;6.62;100.00
10470;BME280;5282;47.052;15.458;2023-04-02T05:19:48;96756.38;;;6.62;100.00
10470;BME280;5282;47.052;15.458;2023-04-02T05:22:23;96762.09;;;6.75;100.00
10470;BME280;5282;47.052;15.458;2023-04-02T05:25:11;96766.28;;;6.70;100.00
10470;BME280;5282;47.052;15.458;2023-04-02T05:27:45;96770.13;;;6.75;100.00
10470;BME280;5282;47.052;15.458;2023-04-02T05:30:35;96770.81;;;6.86;100.00
10470;BME280;5282;47.052;15.458;2023-04-02T05:33:05;96769.50;;;6.90;100.00
10470;BME280;5282;47.052;15.458;2023-04-02T05:35:45;96774.88;;;6.98;100.00
10470;BME280;5282;47.052;15.458;2023-04-02T05:38:18;96774.38;;;6.94;100.00
10470;BME280;5282;47.052;15.458;2023-04-02T05:40:47;96780.59;;;6.95;100.00
10470;BME280;5282;47.052;15.458;2023-04-02T05:43:19;96775.56;;;7.08;100.00
10470;BME280;5282;47.052;15.458;2023-04-02T05:45:51;96784.81;;;7.22;100.00
10470;BME280;5282;47.052;15.458;2023-04-02T05:48:21;96774.06;;;7.14;100.00
10470;BME280;5282;47.052;15.458;2023-04-02T05:50:54;96778.59;;;7.05;100.00
10470;BME280;5282;47.052;15.458;2023-04-02T05:53:24;96772.91;;;7.08;100.00
10470;BME280;5282;47.052;15.458;2023-04-02T05:55:58;96775.94;;;7.22;100.00
10470;BME280;5282;47.052;15.458;2023-04-02T05:58:32;96772.25;;;7.31;100.00
10470;BME280;5282;47.052;15.458;2023-04-02T06:01:28;96785.69;;;7.39;100.00
10470;BME280;5282;47.052;15.458;2023-04-02T06:04:01;96782.00;;;7.49;100.00
10470;BME280;5282;47.052;15.458;2023-04-02T06:06:45;96783.50;;;7.60;100.00
10470;BME280;5282;47.052;15.458;2023-04-02T06:09:16;96786.16;;;7.60;100.00
10470;BME280;5282;47.052;15.458;2023-04-02T06:11:50;96787.03;;;7.60;100.00
10470;BME280;5282;47.052;15.458;2023-04-02T06:14:19;96794.72;;;7.71;100.00
10470;BME280;5282;47.052;15.458;2023-04-02T06:16:46;96796.75;;;7.61;100.00
10470;BME280;5282;47.052;15.458;2023-04-02T06:19:20;96782.66;;;7.67;100.00
10470;BME280;5282;47.052;15.458;2023-04-02T06:21:51;96797.25;;;7.65;100.00
10470;BME280;5282;47.052;15.458;2023-04-02T06:24:24;96795.38;;;7.65;100.00
10470;BME280;5282;47.052;15.458;2023-04-02T06:26:56;96801.09;;;7.79;100.00
10470;BME280;5282;47.052;15.458;2023-04-02T06:29:29;96795.38;;;7.90;100.00
10470;BME280;5282;47.052;15.458;2023-04-02T06:32:00;96801.75;;;7.89;100.00
10470;BME280;5282;47.052;15.458;2023-04-02T06:34:28;96802.94;;;7.86;100.00
10470;BME280;5282;47.052;15.458;2023-04-02T06:36:59;96806.41;;;8.12;100.00
10470;BME280;5282;47.052;15.458;2023-04-02T06:39:28;96815.13;;;8.14;100.00
10470;BME280;5282;47.052;15.458;2023-04-02T06:41:59;96811.59;;;8.22;100.00
10470;BME280;5282;47.052;15.458;2023-04-02T06:44:30;96814.91;;;8.40;100.00
10470;BME280;5282;47.052;15.458;2023-04-02T06:47:01;96815.25;;;8.29;100.00
10470;BME280;5282;47.052;15.458;2023-04-02T06:49:33;96814.56;;;8.43;100.00
10470;BME280;5282;47.052;15.458;2023-04-02T06:52:12;96814.56;;;8.60;100.00
10470;BME280;5282;47.052;15.458;2023-04-02T06:54:43;96818.44;;;8.49;100.00
10470;BME280;5282;47.052;15.458;2023-04-02T06:57:11;96817.22;;;8.68;100.00
10470;BME280;5282;47.052;15.458;2023-04-02T06:59:38;96829.09;;;8.74;100.00
10470;BME280;5282;47.052;15.458;2023-04-02T07:02:18;96828.75;;;8.77;100.00
10470;BME280;5282;47.052;15.458;2023-04-02T07:04:47;96834.13;;;8.69;100.00
10470;BME280;5282;47.052;15.458;2023-04-02T07:07:15;96837.78;;;8.84;100.00
10470;BME280;5282;47.052;15.458;2023-04-02T07:09:42;96838.50;;;8.78;100.00
10470;BME280;5282;47.052;15.458;2023-04-02T07:12:10;96833.19;;;9.01;100.00
10470;BME280;5282;47.052;15.458;2023-04-02T07:14:37;96836.09;;;8.91;100.00
10470;BME280;5282;47.052;15.458;2023-04-02T07:17:05;96832.03;;;8.95;100.00
10470;BME280;5282;47.052;15.458;2023-04-02T07:19:32;96845.53;;;8.79;100.00
10470;BME280;5282;47.052;15.458;2023-04-02T07:21:59;96849.63;;;9.06;100.00
10470;BME280;5282;47.052;15.458;2023-04-02T07:24:27;96846.69;;;9.16;100.00
10470;BME280;5282;47.052;15.458;2023-04-02T07:26:54;96842.28;;;8.92;100.00
10470;BME280;5282;47.052;15.458;2023-04-02T07:29:21;96854.00;;;8.99;100.00
10470;BME280;5282;47.052;15.458;2023-04-02T07:31:48;96857.38;;;9.33;100.00
10470;BME280;5282;47.052;15.458;2023-04-02T07:34:18;96851.28;;;9.39;100.00
10470;BME280;5282;47.052;15.458;2023-04-02T07:36:45;96858.38;;;9.32;100.00
10470;BME280;5282;47.052;15.458;2023-04-02T07:39:13;96866.03;;;9.43;100.00
10470;BME280;5282;47.052;15.458;2023-04-02T07:41:53;96865.78;;;9.61;100.00
10470;BME280;5282;47.052;15.458;2023-04-02T07:44:20;96868.72;;;9.11;100.00
10470;BME280;5282;47.052;15.458;2023-04-02T07:46:47;96871.47;;;8.95;100.00
10470;BME280;5282;47.052;15.458;2023-04-02T07:49:14;96873.59;;;9.08;100.00
10470;BME280;5282;47.052;15.458;2023-04-02T07:51:41;96862.06;;;8.99;100.00
10470;BME280;5282;47.052;15.458;2023-04-02T07:54:08;96864.22;;;9.04;100.00
10470;BME280;5282;47.052;15.458;2023-04-02T07:56:36;96866.88;;;9.12;100.00
10470;BME280;5282;47.052;15.458;2023-04-02T07:59:04;96864.31;;;9.50;100.00
10470;BME280;5282;47.052;15.458;2023-04-02T08:01:32;96869.59;;;9.67;100.00
10470;BME280;5282;47.052;15.458;2023-04-02T08:04:01;96866.75;;;9.92;100.00
10470;BME280;5282;47.052;15.458;2023-04-02T08:06:30;96877.13;;;10.18;100.00
10470;BME280;5282;47.052;15.458;2023-04-02T08:08:57;96870.06;;;10.17;100.00
10470;BME280;5282;47.052;15.458;2023-04-02T08:11:24;96867.69;;;10.22;100.00
10470;BME280;5282;47.052;15.458;2023-04-02T08:13:51;96887.16;;;10.47;100.00
10470;BME280;5282;47.052;15.458;2023-04-02T08:16:20;96882.78;;;10.46;100.00
10470;BME280;5282;47.052;15.458;2023-04-02T08:18:49;96883.78;;;10.45;100.00
10470;BME280;5282;47.052;15.458;2023-04-02T08:21:16;96870.25;;;10.54;100.00
10470;BME280;5282;47.052;15.458;2023-04-02T08:23:43;96872.88;;;10.62;100.00
10470;BME280;5282;47.052;15.458;2023-04-02T08:26:16;96870.00;;;10.78;100.00
10470;BME280;5282;47.052;15.458;2023-04-02T08:28:43;96873.91;;;10.91;100.00
10470;BME280;5282;47.052;15.458;2023-04-02T08:31:10;96870.66;;;10.80;100.00
10470;BME280;5282;47.052;15.458;2023-04-02T08:33:39;96872.53;;;10.95;100.00
10470;BME280;5282;47.052;15.458;2023-04-02T08:36:06;96876.22;;;11.09;100.00
10470;BME280;5282;47.052;15.458;2023-04-02T08:38:34;96878.72;;;11.25;100.00
10470;BME280;5282;47.052;15.458;2023-04-02T08:41:01;96867.94;;;11.25;100.00
10470;BME280;5282;47.052;15.458;2023-04-02T08:44:01;96869.31;;;11.36;100.00
10470;BME280;5282;47.052;15.458;2023-04-02T08:46:36;96873.06;;;11.57;100.00
10470;BME280;5282;47.052;15.458;2023-04-02T08:49:12;96867.66;;;11.94;100.00
10470;BME280;5282;47.052;15.458;2023-04-02T08:51:41;96873.91;;;12.16;100.00
10470;BME280;5282;47.052;15.458;2023-04-02T08:54:16;96873.50;;;11.76;100.00
10470;BME280;5282;47.052;15.458;2023-04-02T08:56:49;96872.19;;;11.93;100.00
10470;BME280;5282;47.052;15.458;2023-04-02T08:59:23;96873.53;;;12.19;100.00
10470;BME280;5282;47.052;15.458;2023-04-02T09:01:55;96878.28;;;12.17;100.00
10470;BME280;5282;47.052;15.458;2023-04-02T09:04:27;96882.41;;;12.13;100.00
10470;BME280;5282;47.052;15.458;2023-04-02T09:06:55;96876.72;;;12.29;100.00
10470;BME280;5282;47.052;15.458;2023-04-02T09:09:23;96878.00;;;12.33;100.00
10470;BME280;5282;47.052;15.458;2023-04-02T09:11:53;96883.19;;;12.35;100.00
10470;BME280;5282;47.052;15.458;2023-04-02T09:14:25;96881.09;;;12.59;100.00
10470;BME280;5282;47.052;15.458;2023-04-02T09:16:59;96887.44;;;12.73;100.00
10470;BME280;5282;47.052;15.458;2023-04-02T09:19:35;96885.38;;;12.46;100.00
10470;BME280;5282;47.052;15.458;2023-04-02T09:22:07;96889.34;;;12.79;100.00
10470;BME280;5282;47.052;15.458;2023-04-02T09:24:35;96893.56;;;12.88;97.31
10470;BME280;5282;47.052;15.458;2023-04-02T09:27:03;96895.31;;;13.03;81.25
10470;BME280;5282;47.052;15.458;2023-04-02T09:29:41;96887.59;;;12.64;89.75
10470;BME280;5282;47.052;15.458;2023-04-02T09:32:20;96889.50;;;12.71;90.86
10470;BME280;5282;47.052;15.458;2023-04-02T09:35:04;96890.59;;;12.76;88.88
10470;BME280;5282;47.052;15.458;2023-04-02T09:37:31;96891.84;;;12.80;88.21
10470;BME280;5282;47.052;15.458;2023-04-02T09:40:18;96895.44;;;13.23;79.82
10470;BME280;5282;47.052;15.458;2023-04-02T09:43:01;96898.72;;;13.18;77.69
10470;BME280;5282;47.052;15.458;2023-04-02T09:45:28;96899.78;;;13.66;77.53
10470;BME280;5282;47.052;15.458;2023-04-02T09:47:58;96898.91;;;13.52;76.27
10470;BME280;5282;47.052;15.458;2023-04-02T09:50:29;96900.72;;;13.93;76.24
10470;BME280;5282;47.052;15.458;2023-04-02T09:53:23;96894.94;;;14.16;74.76
10470;BME280;5282;47.052;15.458;2023-04-02T09:56:06;96903.66;;;14.05;74.06
10470;BME280;5282;47.052;15.458;2023-04-02T09:58:34;96896.81;;;14.36;64.61
10470;BME280;5282;47.052;15.458;2023-04-02T10:01:01;96895.97;;;14.56;56.97
10470;BME280;5282;47.052;15.458;2023-04-02T10:03:30;96891.19;;;14.64;59.55
10470;BME280;5282;47.052;15.458;2023-04-02T10:06:06;96902.28;;;14.76;65.94
10470;BME280;5282;47.052;15.458;2023-04-02T10:08:35;96895.78;;;14.91;61.33
10470;BME280;5282;47.052;15.458;2023-04-02T10:11:05;96893.91;;;14.91;59.41
10470;BME280;5282;47.052;15.458;2023-04-02T10:13:40;96894.09;;;14.96;56.30
10470;BME280;5282;47.052;15.458;2023-04-02T10:16:11;96893.88;;;15.11;57.16
10470;BME280;5282;47.052;15.458;2023-04-02T10:18:45;96882.19;;;15.18;53.82
10470;BME280;5282;47.052;15.458;2023-04-02T10:21:17;96891.03;;;15.52;54.88
10470;BME280;5282;47.052;15.458;2023-04-02T10:23:47;96884.94;;;16.09;53.42
10470;BME280;5282;47.052;15.458;2023-04-02T10:26:29;96888.13;;;15.99;48.21
10470;BME280;5282;47.052;15.458;2023-04-02T10:29:14;96870.53;;;16.59;43.16
10470;BME280;5282;47.052;15.458;2023-04-02T10:31:47;96881.13;;;16.42;45.39
10470;BME280;5282;47.052;15.458;2023-04-02T10:34:20;96882.16;;;16.73;44.71
10470;BME280;5282;47.052;15.458;2023-04-02T10:36:53;96876.72;;;16.98;42.64
10470;BME280;5282;47.052;15.458;2023-04-02T10:39:24;96877.41;;;17.12;45.18
10470;BME280;5282;47.052;15.458;2023-04-02T10:42:02;96882.19;;;16.41;43.42
10470;BME280;5282;47.052;15.458;2023-04-02T10:44:42;96887.31;;;17.25;42.15
10470;BME280;5282;47.052;15.458;2023-04-02T10:47:23;96878.22;;;16.69;41.37
10470;BME280;5282;47.052;15.458;2023-04-02T10:50:05;96876.25;;;16.76;41.99
10470;BME280;5282;47.052;15.458;2023-04-02T10:52:44;96885.50;;;17.56;41.89
10470;BME280;5282;47.052;15.458;2023-04-02T10:55:15;96892.44;;;17.15;40.80
10470;BME280;5282;47.052;15.458;2023-04-02T10:57:44;96880.69;;;17.88;41.39
10470;BME280;5282;47.052;15.458;2023-04-02T11:00:20;96889.69;;;16.96;40.83
10470;BME280;5282;47.052;15.458;2023-04-02T11:02:52;96876.09;;;17.15;43.19
10470;BME280;5282;47.052;15.458;2023-04-02T11:05:27;96881.56;;;17.33;41.36
10470;BME280;5282;47.052;15.458;2023-04-02T11:08:01;96883.34;;;17.77;42.02
10470;BME280;5282;47.052;15.458;2023-04-02T11:10:32;96872.84;;;18.65;40.25
10470;BME280;5282;47.052;15.458;2023-04-02T11:13:06;96881.81;;;17.81;39.25
10470;BME280;5282;47.052;15.458;2023-04-02T11:15:35;96880.13;;;17.31;41.08
10470;BME280;5282;47.052;15.458;2023-04-02T11:18:06;96882.06;;;17.61;40.24
10470;BME280;5282;47.052;15.458;2023-04-02T11:20:54;96884.94;;;17.10;39.86
10470;BME280;5282;47.052;15.458;2023-04-02T11:23:27;96879.59;;;16.78;41.47
10470;BME280;5282;47.052;15.458;2023-04-02T11:26:27;96881.06;;;16.23;41.94
10470;BME280;5282;47.052;15.458;2023-04-02T11:29:01;96895.19;;;15.54;42.39
10470;BME280;5282;47.052;15.458;2023-04-02T11:31:30;96890.63;;;15.55;43.30
10470;BME280;5282;47.052;15.458;2023-04-02T11:33:57;96893.84;;;15.77;42.79
10470;BME280;5282;47.052;15.458;2023-04-02T11:36:59;96894.38;;;15.54;42.94
10470;BME280;5282;47.052;15.458;2023-04-02T11:39:46;96891.81;;;15.59;43.52
10470;BME280;5282;47.052;15.458;2023-04-02T11:42:29;96888.41;;;15.25;43.43
10470;BME280;5282;47.052;15.458;2023-04-02T11:50:46;96893.19;;;15.82;43.60
10470;BME280;5282;47.052;15.458;2023-04-02T11:53:19;96889.72;;;15.61;43.69
10470;BME280;5282;47.052;15.458;2023-04-02T11:56:06;96888.09;;;15.53;43.44
10470;BME280;5282;47.052;15.458;2023-04-02T11:59:01;96885.19;;;15.55;44.00
10470;BME280;5282;47.052;15.458;2023-04-02T12:04:59;96876.59;;;16.35;44.14
10470;BME280;5282;47.052;15.458;2023-04-02T12:07:40;96879.69;;;16.64;42.48
10470;BME280;5282;47.052;15.458;2023-04-02T12:10:18;96874.75;;;16.80;42.21
10470;BME280;5282;47.052;15.458;2023-04-02T12:12:48;96876.72;;;16.98;42.07
10470;BME280;5282;47.052;15.458;2023-04-02T12:15:32;96873.06;;;16.60;42.49
10470;BME280;5282;47.052;15.458;2023-04-02T12:18:08;96876.88;;;16.53;40.18
10470;BME280;5282;47.052;15.458;2023-04-02T12:20:37;96880.81;;;16.82;39.19
10470;BME280;5282;47.052;15.458;2023-04-02T12:23:05;96880.94;;;16.87;39.42
10470;BME280;5282;47.052;15.458;2023-04-02T12:25:33;96878.47;;;16.86;40.72
10470;BME280;5282;47.052;15.458;2023-04-02T12:28:14;96889.41;;;16.54;47.63
10470;BME280;5282;47.052;15.458;2023-04-02T12:30:46;96894.47;;;15.72;51.58
10470;BME280;5282;47.052;15.458;2023-04-02T12:33:15;96895.00;;;15.56;51.20
10470;BME280;5282;47.052;15.458;2023-04-02T12:35:42;96884.66;;;15.78;47.61
10470;BME280;5282;47.052;15.458;2023-04-02T12:38:19;96889.88;;;15.80;47.57
10470;BME280;5282;47.052;15.458;2023-04-02T12:40:51;96889.34;;;16.03;48.38
10470;BME280;5282;47.052;15.458;2023-04-02T12:43:27;96889.00;;;16.25;46.99
10470;BME280;5282;47.052;15.458;2023-04-02T12:45:55;96883.34;;;16.77;50.24
10470;BME280;5282;47.052;15.458;2023-04-02T12:48:24;96875.44;;;16.75;43.28
10470;BME280;5282;47.052;15.458;2023-04-02T12:50:52;96885.47;;;17.00;44.19
10470;BME280;5282;47.052;15.458;2023-04-02T12:53:21;96882.63;;;16.88;45.63
10470;BME280;5282;47.052;15.458;2023-04-02T12:55:51;96884.03;;;16.72;42.55
10470;BME280;5282;47.052;15.458;2023-04-02T12:58:28;96880.38;;;16.60;41.38
10470;BME280;5282;47.052;15.458;2023-04-02T13:01:14;96888.97;;;16.82;43.20
10470;BME280;5282;47.052;15.458;2023-04-02T13:03:43;96885.50;;;16.93;42.73
10470;BME280;5282;47.052;15.458;2023-04-02T13:06:20;96889.41;;;16.79;42.88
10470;BME280;5282;47.052;15.458;2023-04-02T13:08:49;96891.03;;;17.31;42.36
10470;BME280;5282;47.052;15.458;2023-04-02T13:11:17;96882.41;;;17.52;39.60
10470;BME280;5282;47.052;15.458;2023-04-02T13:13:46;96887.44;;;17.67;40.46
10470;BME280;5282;47.052;15.458;2023-04-02T13:16:27;96887.75;;;17.59;39.77
10470;BME280;5282;47.052;15.458;2023-04-02T13:19:21;96897.56;;;17.79;40.86
10470;BME280;5282;47.052;15.458;2023-04-02T13:21:50;96900.00;;;17.68;41.36
10470;BME280;5282;47.052;15.458;2023-04-02T13:24:19;96911.13;;;17.30;42.29
10470;BME280;5282;47.052;15.458;2023-04-02T13:26:47;96916.81;;;17.03;42.33
10470;BME280;5282;47.052;15.458;2023-04-02T13:29:22;96934.25;;;16.38;42.66
10470;BME280;5282;47.052;15.458;2023-04-02T13:31:51;96939.81;;;15.65;43.73
10470;BME280;5282;47.052;15.458;2023-04-02T13:34:18;96944.94;;;15.28;48.32
10470;BME280;5282;47.052;15.458;2023-04-02T13:36:46;96947.88;;;15.20;51.89
10470;BME280;5282;47.052;15.458;2023-04-02T13:39:13;96948.47;;;15.35;54.68
10470;BME280;5282;47.052;15.458;2023-04-02T13:41:42;96937.03;;;15.20;51.72